KIFP/IFP METAR and TAF weather

Enter ICAO airport designator
Station Type Date Time Source
KIFP METAR 2020/09/22 00:51 UTC NOAA

KIFP 220051Z 15012KT 10SM SCT150 39/05 A2978


Station Type Date Time Source
KIFP Decoded METAR 2020/09/22 00:51 UTC NOAA

Bullhead City, Laughlin/Bullhead International Airport, AZ, United States (KIFP) 35-09-27N 114-33-34W
Sep 21, 2020 - 08:51 PM EDT / 2020.09.22 0051 UTC
Wind: from the SSE (150 degrees) at 14 MPH (12 KT):0
Visibility: 10 mile(s):0
Sky conditions: partly cloudy
Temperature: 102 F (39 C)
Dew Point: 41 F (5 C)
Relative Humidity: 12%
Pressure (altimeter): 29.78 in. Hg (1008 hPa)
ob: KIFP 220051Z 15012KT 10SM SCT150 39/05 A2978
cycle: 1

Station Type Date Time Source
KIFP TAF 2020/09/21 18:30 UTC NOAA

TAF KIFP 211727Z 2118/2218 21007KT P6SM SCT140
FM212000 18011G19KT P6SM FEW100 SCT140
FM220300 15006KT P6SM FEW140
AMD NOT SKED 2201/2215

Example: see airport list